Christine, ND

11:03 PM CDT on May 06, 2015 (GMT -0500)
PFS Kindred | | Change Station
CLOSE
Current Station
Personal Weather Station
Location: Kindred, ND
Elevation: 935 ft
Nearby Weather Stations

Elev 935 ft 46.63 °N, 97.02 °W | Updated 10 seconds ago

Partly Cloudy
Partly Cloudy
63.9 °F
Feels Like 63.9 °F
N
8.5
Wind Variable Wind from East
Gusts 11.0 mph

Today
High -- | Low -- °F
--% Chance of Precip.
Yesterday
High -- | Low -- °F
Precip. -- in
6:05 AM 8:42 PM
Waning Gibbous, 90% visible
Pressure 29.70 in
Visibility 10.0 miles
Clouds Clear
Dew Point 62 °F
Humidity 92%
Rainfall 0.11 in
Snow Depth Not available.
UV 0 out of 12
Pollen 5.20 out of 12
Air Quality Not available.
Flu Activity Regional
METAR KBWP 070330Z AUTO 16013KT 10SM CLR 17/14 A2970 RMK AO1

More Conditions Fewer Conditions

Pressure 29.70 in
Visibility 10.0 miles
Clouds Clear
Dew Point 62 °F
Humidity 92%
Rainfall 0.11 in
Snow Depth Not available.
UV 0 out of 12
Pollen 5.20 out of 12
Air Quality Not available.
Flu Activity Regional
METAR KBWP 070330Z AUTO 16013KT 10SM CLR 17/14 A2970 RMK AO1

More Conditions Fewer Conditions

10-Day Weather Forecast

Almanac

Astronomy

May. 06, 2015 Rise Set
Actual Time
Civil Twilight
Nautical Twilight
Astronomical Twilight
Moon
Length of Visible Light
Length of Day
Tomorrow will be .
, % of the Moon is Illuminated

Today's Extremes

State Highs State Lows

Community

WunderPhotos

Upload Photos

1,819,120 photos uploaded!

WunderBlogs® & News

Nearby

Air Quality

  Air Quality AQ Index Pollutant
Not available.

Snow Depth

Station Depth Elevation

Earthquake Activity

City Distance Mag. Time & Date
Minimum magnitude displayed is 2.5.

Coastal Water Temperatures

Place Temperature

Stations

Nearby Weather Stations

Station Location Temp. Windchill Dew Point Humidity Wind Precip. Elev Updated Type